< Typhoon 200118 2001 Season Typhoon 200120 >
Typhoon 200119 (LEKIMA)
General InformationTrack Information on Google MapsDetailed Wind InformationList of All Images || Disaster Info.ResourceGoogle EarthGE AnimationAtom FeedGeoJSON
Detalied Best Track (Time Zone = UTC)
Year Month Day Hour Lat. Long. Pressure (hPa) Wind (kt) Class Image Chart
2001 9 22 00 19.3 125.3 1002 0 2 Image Chart
2001 9 22 06 19.3 124.7 1002 0 2 Image Chart
2001 9 22 12 19.4 124.3 998 35 3 Image Chart
2001 9 22 18 19.4 123.6 996 35 3 Image Chart
2001 9 23 00 19.4 122.9 996 35 3 Image Chart
2001 9 23 06 19.2 122.2 990 40 3 Image Chart
2001 9 23 12 19.2 122.0 985 45 3 Image Chart
2001 9 23 18 19.3 121.8 980 50 4 Image Chart
2001 9 24 00 19.7 121.6 975 60 4 Image Chart
2001 9 24 06 19.8 121.5 965 70 5 Image Chart
2001 9 24 12 20.0 121.7 965 70 5 Image Chart
2001 9 24 18 20.2 121.9 965 70 5 Image Chart
2001 9 25 00 20.4 121.9 970 65 5 Image Chart
2001 9 25 06 20.8 122.0 975 60 4 Image Chart
2001 9 25 12 21.2 121.8 970 65 5 Image Chart
2001 9 25 18 21.4 121.7 970 65 5 Image Chart
2001 9 26 00 21.6 121.5 970 65 5 Image Chart
2001 9 26 06 22.2 121.4 975 60 4 Image Chart
2001 9 26 12 22.6 120.9 985 50 4 Image Chart
2001 9 26 18 23.3 121.0 992 40 3 Image Chart
2001 9 27 00 23.6 121.1 996 40 3 Image Chart
2001 9 27 06 23.7 121.2 996 40 3 Image Chart
2001 9 27 12 23.7 121.4 998 35 3 Image Chart
2001 9 27 18 23.8 121.4 998 0 2 Image Chart
2001 9 28 00 24.2 121.4 1000 0 2 Image Chart
2001 9 28 06 24.6 121.3 998 0 2 Image Chart
2001 9 28 12 24.8 121.1 1000 0 2 Image Chart
2001 9 28 18 25.0 120.9 1000 0 2 Image Chart
2001 9 29 00 25.4 120.5 1000 0 2 Image Chart
2001 9 29 06 25.6 120.2 1002 0 2 Image Chart
2001 9 29 12 25.9 120.6 1004 0 2 Image Chart
2001 9 29 18 26.2 121.4 1004 0 2 Image Chart
2001 9 30 00 26.6 122.5 1006 0 2 Image Chart
2001 9 30 06 27.6 124.4 1004 0 2 Image Chart
Japan Meteorological Agency Best Track Data | Correction Date : 2002-01-24
< Typhoon 200118 2001 Season Typhoon 200120 >

Help